Aviation Digital Data Service (ADDS)

Output produced by METARs form (2238 UTC 30 March 2017)
found at http://www.aviationweather.gov/adds/metars/
 
DXXX 302200Z 21005KT 9999 FEW012 27/21 Q1011 NOSIG
TAF COR DXXX 301700Z 3018/3124 20010KT 9999 SCT012 
     TEMPO 3018/3022 TS BKN013 FEW020CB 
     PROB30 06012G25KT 4000 TSRA 
     BECMG 3023/3001 VRB03KT 
     BECMG 3109/3111 20013KT
       
DXNG 302100Z 00000KT CAVOK 31/18 Q1013
TAF DXNG 301700Z 3018/3118 VRB05KT 9999 FEW010 
     PROB30 
     TEMPO 3018/3021 TS BKN010 FEW020CB